Time;durP1;ratioP1;P1;durP2;ratioP2;P2;SDS_P1;SDS_P2;PMS_P1;PMS_P2;Temp;Humidity;BMP_temperature;BMP_pressure;BME280_temperature;BME280_humidity;BME280_pressure;Samples;Min_cycle;Max_cycle;Signal;HPM_P1;HPM_P2
2022/01/02 00:00:00;;;;;;;1.50;1.40;;;20.30;84.50;;;;;;4942832;29;20176;-22
2022/01/02 00:02:29;;;;;;;1.83;1.60;;;20.30;84.60;;;;;;4941613;29;20169;-23
2022/01/02 00:05:06;;;;;;;1.60;1.50;;;20.20;84.80;;;;;;4941190;29;20778;-22
2022/01/02 00:07:35;;;;;;;1.80;1.50;;;20.20;85.00;;;;;;4943005;29;20185;-24
2022/01/02 00:10:04;;;;;;;2.23;1.60;;;20.20;85.30;;;;;;4941432;29;20197;-21
2022/01/02 00:12:34;;;;;;;1.83;1.43;;;20.10;85.50;;;;;;4941453;29;20170;-23
2022/01/02 00:15:04;;;;;;;1.53;1.40;;;20.10;85.90;;;;;;4942616;29;20185;-22
2022/01/02 00:17:30;;;;;;;1.47;1.37;;;20.10;86.20;;;;;;4941186;29;20187;-20
2022/01/02 00:20:02;;;;;;;1.60;1.50;;;20.00;86.40;;;;;;4942344;29;20166;-21
2022/01/02 00:22:40;;;;;;;1.77;1.40;;;20.00;86.80;;;;;;4942448;29;20207;-22
2022/01/02 00:25:12;;;;;;;2.30;1.50;;;19.90;86.90;;;;;;4941639;29;20499;-20
2022/01/02 00:27:39;;;;;;;1.93;1.30;;;19.90;87.10;;;;;;4942140;29;20162;-21
2022/01/02 00:30:06;;;;;;;2.07;1.50;;;19.90;87.20;;;;;;4941951;29;20658;-21
2022/01/02 00:32:38;;;;;;;2.20;1.50;;;19.90;87.60;;;;;;4941660;29;20166;-23
2022/01/02 00:35:04;;;;;;;1.77;1.50;;;19.90;87.70;;;;;;4941844;29;20618;-24
2022/01/02 00:37:30;;;;;;;1.70;1.47;;;19.80;87.90;;;;;;4941619;29;20168;-22
2022/01/02 00:39:56;;;;;;;3.67;1.50;;;19.80;88.10;;;;;;4941221;29;20586;-21
2022/01/02 00:42:33;;;;;;;1.43;1.30;;;19.80;88.40;;;;;;4940092;29;20180;-21
2022/01/02 00:45:15;;;;;;;1.53;1.43;;;19.80;88.70;;;;;;4942015;29;20170;-23
2022/01/02 00:47:59;;;;;;;1.50;1.40;;;19.70;88.80;;;;;;4941217;29;20247;-23
2022/01/02 00:50:51;;;;;;;1.77;1.40;;;19.70;89.10;;;;;;4941067;29;20244;-22
2022/01/02 00:53:20;;;;;;;1.70;1.50;;;19.70;89.20;;;;;;4940987;29;20579;-22
2022/01/02 00:55:47;;;;;;;1.30;1.20;;;19.70;89.30;;;;;;4941416;29;20160;-24
2022/01/02 00:58:16;;;;;;;1.77;1.47;;;19.70;89.40;;;;;;4940996;29;20171;-20
2022/01/02 01:00:53;;;;;;;1.67;1.57;;;19.60;89.50;;;;;;4940570;29;20282;-24
2022/01/02 01:03:40;;;;;;;2.10;1.30;;;19.60;89.60;;;;;;4937639;29;20201;-22
2022/01/02 01:06:09;;;;;;;1.73;1.60;;;19.60;89.80;;;;;;4940843;29;20213;-23
2022/01/02 01:08:36;;;;;;;2.03;1.47;;;19.60;89.80;;;;;;4940576;29;20174;-21
2022/01/02 01:11:08;;;;;;;1.47;1.37;;;19.60;90.00;;;;;;4940477;29;20185;-23
2022/01/02 01:13:35;;;;;;;1.50;1.33;;;19.50;90.00;;;;;;4940222;29;20174;-22
2022/01/02 01:16:02;;;;;;;1.50;1.40;;;19.50;90.00;;;;;;4940887;29;20559;-22
2022/01/02 01:18:29;;;;;;;1.40;1.30;;;19.50;90.10;;;;;;4940708;29;20210;-23
2022/01/02 01:20:55;;;;;;;2.23;1.53;;;19.50;90.20;;;;;;4940723;29;20191;-22
2022/01/02 01:23:21;;;;;;;1.60;1.40;;;19.50;90.20;;;;;;4940991;29;20234;-26
2022/01/02 01:25:49;;;;;;;2.20;1.70;;;19.50;90.20;;;;;;4940969;29;20257;-23
2022/01/02 01:28:16;;;;;;;2.00;1.50;;;19.40;90.20;;;;;;4940088;29;20314;-21
2022/01/02 01:30:42;;;;;;;1.50;1.40;;;19.40;90.30;;;;;;4939921;29;20185;-20
2022/01/02 01:33:08;;;;;;;2.17;1.73;;;19.40;90.40;;;;;;4940427;29;20173;-20
2022/01/02 01:35:34;;;;;;;2.83;1.50;;;19.40;90.40;;;;;;4941064;29;20166;-23
2022/01/02 01:38:00;;;;;;;1.43;1.33;;;19.40;90.40;;;;;;4940847;29;20233;-22
2022/01/02 01:40:33;;;;;;;2.00;1.40;;;19.40;90.40;;;;;;4940181;29;20212;-22
2022/01/02 01:43:02;;;;;;;2.73;1.70;;;19.30;90.40;;;;;;4940443;29;20617;-21
2022/01/02 01:45:29;;;;;;;1.67;1.57;;;19.30;90.40;;;;;;4940358;29;20186;-23
2022/01/02 01:48:05;;;;;;;1.43;1.33;;;19.30;90.50;;;;;;4939724;29;20179;-23
2022/01/02 01:50:40;;;;;;;1.40;1.30;;;19.30;90.60;;;;;;4939618;29;20177;-22
2022/01/02 01:53:06;;;;;;;2.57;1.57;;;19.30;90.60;;;;;;4935520;29;20661;-22
2022/01/02 01:55:35;;;;;;;1.47;1.37;;;19.30;90.60;;;;;;4940434;29;20169;-23
2022/01/02 01:58:03;;;;;;;1.27;1.17;;;19.30;90.70;;;;;;4940450;29;20169;-21
2022/01/02 02:00:29;;;;;;;1.57;1.47;;;19.20;90.90;;;;;;4940438;29;20466;-23
2022/01/02 02:02:56;;;;;;;1.50;1.40;;;19.20;90.70;;;;;;4940148;29;20182;-22
2022/01/02 02:05:22;;;;;;;2.20;1.60;;;19.20;90.70;;;;;;4939286;29;20191;-24
2022/01/02 02:07:47;;;;;;;1.60;1.50;;;19.20;90.80;;;;;;4939709;29;20469;-22
2022/01/02 02:10:26;;;;;;;1.63;1.53;;;19.20;90.80;;;;;;4940410;29;20244;-22
2022/01/02 02:12:55;;;;;;;1.90;1.43;;;19.20;90.80;;;;;;4940877;29;20230;-22
2022/01/02 02:15:21;;;;;;;1.83;1.50;;;19.20;90.90;;;;;;4939798;29;20187;-25
2022/01/02 02:17:49;;;;;;;1.97;1.60;;;19.10;90.80;;;;;;4940393;29;20503;-22
2022/01/02 02:20:19;;;;;;;2.00;1.40;;;19.10;90.90;;;;;;4940127;29;20203;-21
2022/01/02 02:22:48;;;;;;;2.27;1.57;;;19.10;90.90;;;;;;4939629;29;20224;-22
2022/01/02 02:25:16;;;;;;;1.50;1.40;;;19.10;90.90;;;;;;4939460;29;20173;-21
2022/01/02 02:27:52;;;;;;;1.57;1.47;;;19.10;90.90;;;;;;4939454;29;20194;-22
2022/01/02 02:30:20;;;;;;;2.30;1.60;;;19.10;91.00;;;;;;4940198;29;20174;-20
2022/01/02 02:32:47;;;;;;;1.60;1.50;;;19.10;91.00;;;;;;4939716;29;20187;-20
2022/01/02 02:35:13;;;;;;;1.93;1.40;;;19.10;91.00;;;;;;4940041;29;20200;-22
2022/01/02 02:37:44;;;;;;;2.00;1.50;;;19.10;91.00;;;;;;4939257;29;20486;-23
2022/01/02 02:40:16;;;;;;;1.40;1.30;;;19.10;91.00;;;;;;4939949;29;20214;-22
2022/01/02 02:42:54;;;;;;;1.80;1.30;;;19.10;91.10;;;;;;4940421;29;20166;-24
2022/01/02 02:51:03;;;;;;;1.60;1.50;;;19.00;91.10;;;;;;4939930;29;20173;-24
2022/01/02 02:53:29;;;;;;;1.57;1.20;;;19.00;91.10;;;;;;4939757;29;20561;-24
2022/01/02 02:55:57;;;;;;;1.43;1.33;;;19.00;91.10;;;;;;4939734;29;20260;-23
2022/01/02 03:00:59;;;;;;;1.33;1.23;;;19.00;91.20;;;;;;4943454;29;20214;-23
2022/01/02 03:03:26;;;;;;;1.80;1.60;;;19.00;91.20;;;;;;4942790;29;20176;-22
2022/01/02 03:05:52;;;;;;;2.37;1.47;;;19.00;91.20;;;;;;4942969;29;20224;-20
2022/01/02 03:08:18;;;;;;;2.27;1.40;;;19.00;91.20;;;;;;4940322;29;20181;-22
2022/01/02 03:10:44;;;;;;;1.80;1.40;;;19.00;91.20;;;;;;4941178;29;20185;-21
2022/01/02 03:13:10;;;;;;;2.33;1.37;;;19.00;91.20;;;;;;4941883;29;20250;-21
2022/01/02 03:15:35;;;;;;;1.40;1.30;;;19.00;91.20;;;;;;4940398;29;20184;-24
2022/01/02 03:18:01;;;;;;;1.50;1.40;;;18.90;91.20;;;;;;4940784;29;20263;-23
2022/01/02 03:20:27;;;;;;;1.57;1.47;;;19.00;91.20;;;;;;4940520;29;20221;-23
2022/01/02 03:22:53;;;;;;;1.93;1.60;;;19.00;91.30;;;;;;4940299;29;20175;-23
2022/01/02 03:25:19;;;;;;;1.77;1.40;;;18.90;91.20;;;;;;4940398;29;20609;-21
2022/01/02 03:27:45;;;;;;;1.40;1.30;;;18.90;91.20;;;;;;4940925;29;20180;-23
2022/01/02 03:30:11;;;;;;;1.47;1.37;;;18.90;91.30;;;;;;4940130;29;20192;-22
2022/01/02 03:32:37;;;;;;;2.47;1.40;;;18.90;91.30;;;;;;4940110;29;20214;-22
2022/01/02 03:35:03;;;;;;;1.70;1.37;;;18.90;91.30;;;;;;4940295;29;20223;-23
2022/01/02 03:37:32;;;;;;;1.80;1.27;;;18.90;91.30;;;;;;4940532;29;20207;-24
2022/01/02 03:40:04;;;;;;;1.63;1.30;;;18.90;91.30;;;;;;4940587;29;20623;-18
2022/01/02 03:42:30;;;;;;;2.00;1.53;;;18.90;91.40;;;;;;4939321;29;20179;-21
2022/01/02 03:44:58;;;;;;;1.40;1.30;;;18.90;91.30;;;;;;4940473;29;20511;-20
2022/01/02 03:47:25;;;;;;;1.23;1.13;;;18.90;91.30;;;;;;4939787;29;20191;-23
2022/01/02 03:49:51;;;;;;;1.77;1.30;;;18.90;91.30;;;;;;4940511;29;20238;-22
2022/01/02 03:52:17;;;;;;;2.30;1.67;;;18.80;91.40;;;;;;4940722;29;20216;-20
2022/01/02 03:54:42;;;;;;;1.63;1.30;;;18.90;91.40;;;;;;4940369;29;20221;-26
2022/01/02 03:57:08;;;;;;;1.30;1.20;;;18.80;91.40;;;;;;4939832;29;20223;-24
2022/01/02 03:59:34;;;;;;;1.87;1.20;;;18.80;91.40;;;;;;4940645;29;20218;-26
2022/01/02 04:02:00;;;;;;;1.67;1.30;;;18.80;91.40;;;;;;4939046;29;20171;-24
2022/01/02 04:04:28;;;;;;;1.80;1.47;;;18.80;91.40;;;;;;4939448;29;20185;-23
2022/01/02 04:06:54;;;;;;;1.83;1.40;;;18.80;91.40;;;;;;4940460;29;20238;-23
2022/01/02 04:09:19;;;;;;;1.50;1.30;;;18.80;91.40;;;;;;4939998;29;20180;-23
2022/01/02 04:11:45;;;;;;;1.23;1.13;;;18.80;91.40;;;;;;4938491;29;20194;-24
2022/01/02 04:14:12;;;;;;;2.10;1.50;;;18.80;91.40;;;;;;4940095;29;20194;-23
2022/01/02 04:16:38;;;;;;;1.60;1.20;;;18.80;91.50;;;;;;4939228;29;20703;-24
2022/01/02 04:19:04;;;;;;;2.00;1.37;;;18.80;91.40;;;;;;4939483;29;20209;-24
2022/01/02 04:21:29;;;;;;;1.47;1.33;;;18.80;91.50;;;;;;4939943;29;20173;-22
2022/01/02 04:23:55;;;;;;;1.93;1.43;;;18.80;91.50;;;;;;4939678;29;20168;-28
2022/01/02 04:26:21;;;;;;;1.20;1.10;;;18.80;91.50;;;;;;4938653;29;20176;-23
2022/01/02 04:28:48;;;;;;;1.67;1.30;;;18.80;91.60;;;;;;4940101;29;20197;-23
2022/01/02 04:31:14;;;;;;;1.50;1.40;;;18.80;91.60;;;;;;4939073;29;20570;-24
2022/01/02 04:33:39;;;;;;;1.70;1.50;;;18.80;91.60;;;;;;4938838;29;20429;-23
2022/01/02 04:36:05;;;;;;;1.63;1.50;;;18.80;91.60;;;;;;4938944;29;20285;-24
2022/01/02 04:38:31;;;;;;;1.27;1.10;;;18.70;91.60;;;;;;4939834;29;20311;-22
2022/01/02 04:40:57;;;;;;;1.40;1.20;;;18.80;91.80;;;;;;4939736;29;20183;-26
2022/01/02 04:43:23;;;;;;;1.60;1.10;;;18.70;91.60;;;;;;4939233;29;20186;-24
2022/01/02 04:45:49;;;;;;;1.80;1.53;;;18.70;91.90;;;;;;4939495;29;20171;-24
2022/01/02 04:48:14;;;;;;;1.30;1.20;;;18.70;91.60;;;;;;4938690;29;20187;-23
2022/01/02 04:50:40;;;;;;;1.27;1.17;;;18.70;91.60;;;;;;4938124;29;20286;-20
2022/01/02 04:53:06;;;;;;;1.40;1.30;;;18.70;91.70;;;;;;4938525;29;20328;-21
2022/01/02 04:55:32;;;;;;;2.10;1.40;;;18.70;91.70;;;;;;4938064;29;20592;-22
2022/01/02 04:57:58;;;;;;;1.43;1.30;;;18.70;91.60;;;;;;4938366;29;20184;-22
2022/01/02 05:00:23;;;;;;;1.50;1.40;;;18.70;91.70;;;;;;4938602;29;20620;-21
2022/01/02 05:02:49;;;;;;;1.83;1.30;;;18.70;91.70;;;;;;4938811;29;20255;-21
2022/01/02 05:05:16;;;;;;;1.93;1.20;;;18.70;91.80;;;;;;4938274;29;20278;-21
2022/01/02 05:07:42;;;;;;;1.27;1.13;;;18.70;91.70;;;;;;4938193;29;20275;-21
2022/01/02 05:10:08;;;;;;;1.97;1.37;;;18.70;91.80;;;;;;4939166;29;20262;-20
2022/01/02 05:12:34;;;;;;;1.87;1.30;;;18.70;91.80;;;;;;4937930;29;20482;-21
2022/01/02 05:15:01;;;;;;;1.47;1.33;;;18.60;91.80;;;;;;4938846;29;20187;-21
2022/01/02 05:17:26;;;;;;;1.70;1.40;;;18.60;91.80;;;;;;4938941;29;20426;-21
2022/01/02 05:19:52;;;;;;;2.13;1.40;;;18.60;91.90;;;;;;4937745;29;20651;-19
2022/01/02 05:22:18;;;;;;;1.97;1.50;;;18.60;91.90;;;;;;4937115;29;20514;-24
2022/01/02 05:24:44;;;;;;;2.63;1.70;;;18.60;91.90;;;;;;4937053;29;20271;-23
2022/01/02 05:27:10;;;;;;;1.30;1.10;;;18.60;92.00;;;;;;4938527;29;20271;-23
2022/01/02 05:29:36;;;;;;;1.27;1.17;;;18.50;92.00;;;;;;4938342;29;20189;-20
2022/01/02 05:32:02;;;;;;;1.63;1.13;;;18.60;92.20;;;;;;4938734;29;20203;-23
2022/01/02 05:34:28;;;;;;;2.93;1.37;;;20.60;83.50;;;;;;4938326;29;20574;-24
2022/01/02 05:36:54;;;;;;;2.80;1.23;;;22.30;68.30;;;;;;4938903;29;20191;-23
2022/01/02 05:39:21;;;;;;;1.40;1.30;;;22.50;64.10;;;;;;4937737;29;20212;-23
2022/01/02 05:41:49;;;;;;;1.73;1.20;;;22.80;61.70;;;;;;4937355;29;20179;-22
2022/01/02 05:44:15;;;;;;;2.43;1.20;;;22.90;61.00;;;;;;4937469;29;20172;-21
2022/01/02 05:46:42;;;;;;;1.90;1.20;;;23.00;60.00;;;;;;4937429;29;20283;-21
2022/01/02 05:49:08;;;;;;;2.00;1.40;;;23.30;59.00;;;;;;4937618;29;20198;-21
2022/01/02 05:51:34;;;;;;;1.20;1.10;;;23.40;58.40;;;;;;4937307;29;20216;-21
2022/01/02 05:54:00;;;;;;;1.90;1.40;;;23.60;58.10;;;;;;4937480;29;20546;-23
2022/01/02 05:56:25;;;;;;;1.70;1.20;;;23.60;57.70;;;;;;4937281;29;20208;-25
2022/01/02 05:58:51;;;;;;;2.20;1.27;;;23.60;57.80;;;;;;4938839;29;20227;-22
2022/01/02 06:01:17;;;;;;;1.43;1.30;;;23.50;57.90;;;;;;4937255;29;20239;-22
2022/01/02 06:03:43;;;;;;;1.63;1.30;;;23.50;57.70;;;;;;4937613;29;20169;-23
2022/01/02 06:06:08;;;;;;;1.53;1.33;;;23.60;57.70;;;;;;4938334;29;20218;-25
2022/01/02 06:08:34;;;;;;;1.37;1.20;;;23.70;57.20;;;;;;4938840;29;20466;-21
2022/01/02 06:11:00;;;;;;;1.60;1.40;;;23.90;57.20;;;;;;4936928;29;20187;-22
2022/01/02 06:13:26;;;;;;;1.77;1.27;;;24.00;56.50;;;;;;4938605;29;20188;-23
2022/01/02 06:15:53;;;;;;;1.97;1.20;;;23.90;56.60;;;;;;4937536;29;20244;-21
2022/01/02 06:18:19;;;;;;;1.40;1.30;;;23.70;56.80;;;;;;4937522;29;20171;-22
2022/01/02 06:20:44;;;;;;;1.67;1.40;;;23.60;57.20;;;;;;4937915;29;20203;-21
2022/01/02 06:23:10;;;;;;;1.43;1.33;;;23.50;57.50;;;;;;4937223;29;20172;-22
2022/01/02 06:25:36;;;;;;;1.83;1.30;;;23.30;58.10;;;;;;4937329;29;20180;-20
2022/01/02 06:28:02;;;;;;;1.33;1.23;;;23.10;58.50;;;;;;4937275;29;20255;-25
2022/01/02 06:30:28;;;;;;;2.03;1.40;;;23.00;59.20;;;;;;4937812;29;20473;-21
2022/01/02 06:32:57;;;;;;;1.83;1.33;;;22.80;60.10;;;;;;4938036;29;20581;-21
2022/01/02 06:35:27;;;;;;;2.17;1.50;;;22.50;61.70;;;;;;4941837;29;20273;-22
2022/01/02 06:37:54;;;;;;;1.63;1.50;;;22.20;63.60;;;;;;4940585;29;20654;-23
2022/01/02 06:40:21;;;;;;;1.60;1.37;;;22.00;64.90;;;;;;4940764;29;20544;-23
2022/01/02 06:42:47;;;;;;;1.87;1.30;;;22.00;65.40;;;;;;4941656;29;20573;-23
2022/01/02 06:45:12;;;;;;;1.50;1.30;;;21.90;65.90;;;;;;4940558;29;20539;-25
2022/01/02 06:47:38;;;;;;;1.53;1.30;;;21.80;67.50;;;;;;4941474;29;20182;-22
2022/01/02 06:50:05;;;;;;;1.63;1.40;;;21.60;68.70;;;;;;4941753;29;20184;-21
2022/01/02 06:52:31;;;;;;;2.40;1.27;;;21.40;70.40;;;;;;4941895;29;20175;-24
2022/01/02 06:54:57;;;;;;;2.80;1.30;;;21.20;72.10;;;;;;4941105;29;20177;-22
2022/01/02 06:57:23;;;;;;;3.10;1.40;;;20.90;74.10;;;;;;4940939;29;20178;-23
2022/01/02 06:59:49;;;;;;;2.73;1.57;;;20.70;76.00;;;;;;4942074;29;20468;-24
2022/01/02 07:02:17;;;;;;;2.90;1.50;;;20.50;77.90;;;;;;4940127;29;20441;-23
2022/01/02 07:04:42;;;;;;;1.53;1.33;;;20.40;79.10;;;;;;4940970;29;20171;-23
2022/01/02 07:07:09;;;;;;;2.80;1.40;;;20.30;80.50;;;;;;4940423;29;20273;-20
2022/01/02 07:09:34;;;;;;;1.80;1.30;;;20.20;81.50;;;;;;4940807;29;20176;-24
2022/01/02 07:12:01;;;;;;;1.60;1.33;;;20.10;82.50;;;;;;4940375;29;20460;-23
2022/01/02 07:14:27;;;;;;;1.83;1.40;;;20.00;83.20;;;;;;4940510;29;20291;-25
2022/01/02 07:16:57;;;;;;;2.80;1.50;;;19.90;84.10;;;;;;4940103;29;20245;-22
2022/01/02 07:19:23;;;;;;;1.80;1.70;;;20.00;83.60;;;;;;4940884;29;20207;-21
2022/01/02 07:21:50;;;;;;;2.03;1.30;;;20.30;81.60;;;;;;4939520;29;20466;-21
2022/01/02 07:24:15;;;;;;;2.17;1.57;;;20.70;78.40;;;;;;4939608;29;20168;-21
2022/01/02 07:26:41;;;;;;;2.23;1.60;;;21.10;74.80;;;;;;4939850;29;20219;-22
2022/01/02 07:29:07;;;;;;;2.07;1.37;;;21.40;71.20;;;;;;4940569;29;20522;-22
2022/01/02 07:31:33;;;;;;;2.00;1.43;;;22.10;67.20;;;;;;4939635;29;20251;-23
2022/01/02 07:33:59;;;;;;;2.07;1.57;;;22.50;63.30;;;;;;4939985;29;20212;-21
2022/01/02 07:36:24;;;;;;;1.83;1.50;;;22.70;61.20;;;;;;4941443;29;20187;-23
2022/01/02 07:38:50;;;;;;;2.17;1.50;;;22.80;60.40;;;;;;4939832;29;20250;-21
2022/01/02 07:41:16;;;;;;;1.80;1.30;;;23.00;59.30;;;;;;4939678;29;20180;-22
2022/01/02 07:43:42;;;;;;;2.23;1.40;;;23.20;58.30;;;;;;4940312;29;20245;-21
2022/01/02 07:46:08;;;;;;;2.53;1.50;;;23.40;57.80;;;;;;4939275;29;20255;-21
2022/01/02 07:48:33;;;;;;;2.47;1.50;;;23.50;57.30;;;;;;4939105;29;20251;-22
2022/01/02 07:50:59;;;;;;;3.23;1.40;;;23.50;57.10;;;;;;4940042;29;20221;-19
2022/01/02 07:53:25;;;;;;;2.40;1.67;;;23.40;57.00;;;;;;4938772;29;20550;-23
2022/01/02 07:55:51;;;;;;;3.37;1.60;;;23.20;57.50;;;;;;4940183;29;20181;-22
2022/01/02 07:58:16;;;;;;;2.20;1.60;;;23.00;58.00;;;;;;4938671;29;20359;-25
2022/01/02 08:00:43;;;;;;;2.20;1.60;;;22.70;58.80;;;;;;4939356;29;20420;-24
2022/01/02 08:03:08;;;;;;;2.63;1.40;;;22.50;59.70;;;;;;4939556;29;20177;-24
2022/01/02 08:05:34;;;;;;;1.77;1.57;;;22.20;60.80;;;;;;4939244;29;20248;-23
2022/01/02 08:08:00;;;;;;;2.13;1.53;;;21.90;62.80;;;;;;4938771;29;20172;-22
2022/01/02 08:10:27;;;;;;;2.53;1.30;;;21.80;63.90;;;;;;4938589;29;20539;-21
2022/01/02 08:12:53;;;;;;;2.57;1.50;;;21.60;65.60;;;;;;4939311;29;20173;-23
2022/01/02 08:15:20;;;;;;;2.47;1.63;;;21.50;66.90;;;;;;4939122;29;20188;-20
2022/01/02 08:17:46;;;;;;;3.40;1.87;;;21.30;70.00;;;;;;4938765;29;20554;-24
2022/01/02 08:20:13;;;;;;;6.93;2.43;;;21.10;74.60;;;;;;4939096;29;20226;-23
2022/01/02 08:22:38;;;;;;;6.27;2.40;;;21.00;79.80;;;;;;4938709;29;20184;-22
2022/01/02 08:25:05;;;;;;;8.80;2.60;;;20.80;82.60;;;;;;4937733;29;20236;-24
2022/01/02 08:27:30;;;;;;;13.30;2.93;;;20.60;86.30;;;;;;4939299;29;20247;-23
2022/01/02 08:29:57;;;;;;;8.90;2.60;;;20.40;88.50;;;;;;4938511;29;20191;-22
2022/01/02 08:32:22;;;;;;;12.70;3.10;;;20.30;90.10;;;;;;4939130;29;20187;-22
2022/01/02 08:34:48;;;;;;;10.17;2.80;;;20.10;90.70;;;;;;4938784;29;20176;-19
2022/01/02 08:37:15;;;;;;;9.47;2.87;;;20.00;91.30;;;;;;4937444;29;20232;-25
2022/01/02 08:39:42;;;;;;;11.93;3.10;;;19.90;92.50;;;;;;4938107;29;20270;-21
2022/01/02 08:42:09;;;;;;;12.03;2.87;;;19.80;93.10;;;;;;4936764;29;20204;-22
2022/01/02 08:44:36;;;;;;;6.00;2.70;;;19.80;93.10;;;;;;4938815;29;20178;-24
2022/01/02 08:47:02;;;;;;;7.47;2.77;;;19.70;92.90;;;;;;4937860;29;20567;-22
2022/01/02 08:49:28;;;;;;;8.83;2.60;;;19.70;92.90;;;;;;4938233;29;20181;-24
2022/01/02 08:51:55;;;;;;;5.63;2.47;;;19.60;92.90;;;;;;4937407;29;20183;-21
2022/01/02 08:54:20;;;;;;;5.37;2.33;;;19.60;92.50;;;;;;4937628;29;20183;-21
2022/01/02 08:56:46;;;;;;;8.30;2.60;;;20.00;91.40;;;;;;4937869;29;20185;-22
2022/01/02 08:59:12;;;;;;;5.63;2.50;;;20.30;90.20;;;;;;4938905;29;20296;-22
2022/01/02 09:01:38;;;;;;;7.03;2.13;;;20.70;87.50;;;;;;4939337;29;20281;-21
2022/01/02 09:04:04;;;;;;;4.83;2.13;;;21.40;81.40;;;;;;4940985;29;20318;-24
2022/01/02 09:06:32;;;;;;;5.60;2.50;;;22.00;74.70;;;;;;4940716;29;20257;-21
2022/01/02 09:08:58;;;;;;;3.47;2.30;;;22.50;69.90;;;;;;4940365;29;20280;-21
2022/01/02 09:11:24;;;;;;;4.20;2.07;;;22.90;66.50;;;;;;4940816;29;20284;-22
2022/01/02 09:13:50;;;;;;;3.70;2.23;;;23.20;63.40;;;;;;4939671;29;20176;-24
2022/01/02 09:16:16;;;;;;;3.27;2.17;;;23.20;61.90;;;;;;4940367;29;20179;-21
2022/01/02 09:18:42;;;;;;;5.77;1.80;;;23.30;60.50;;;;;;4941389;29;20175;-22
2022/01/02 09:21:07;;;;;;;4.97;2.00;;;23.20;60.00;;;;;;4940729;29;20189;-22
2022/01/02 09:23:33;;;;;;;2.80;1.83;;;23.30;59.90;;;;;;4941062;29;20172;-23
2022/01/02 09:25:59;;;;;;;4.77;2.00;;;23.30;59.50;;;;;;4940028;29;20275;-21
2022/01/02 09:28:25;;;;;;;4.17;2.07;;;23.30;59.30;;;;;;4940495;29;20187;-24
2022/01/02 09:30:50;;;;;;;2.97;1.97;;;23.10;59.70;;;;;;4939988;29;20176;-22
2022/01/02 09:33:16;;;;;;;3.93;1.80;;;23.10;59.90;;;;;;4940158;29;20180;-23
2022/01/02 09:35:42;;;;;;;3.97;1.80;;;22.90;60.00;;;;;;4940415;29;20242;-22
2022/01/02 09:38:09;;;;;;;3.27;2.10;;;22.70;61.10;;;;;;4940567;29;20203;-23
2022/01/02 09:40:35;;;;;;;4.13;1.90;;;22.40;62.20;;;;;;4940797;29;20207;-24
2022/01/02 09:43:03;;;;;;;3.60;2.07;;;22.20;63.60;;;;;;4939664;29;20187;-21
2022/01/02 09:45:33;;;;;;;3.37;1.67;;;22.00;64.80;;;;;;4939617;29;20176;-22
2022/01/02 09:47:59;;;;;;;2.43;1.87;;;21.80;66.30;;;;;;4940073;29;20240;-21
2022/01/02 09:50:25;;;;;;;2.30;1.70;;;21.50;68.10;;;;;;4940588;29;20168;-22
2022/01/02 09:52:54;;;;;;;3.37;1.83;;;21.50;69.00;;;;;;4940049;29;20170;-23
2022/01/02 09:55:20;;;;;;;2.37;1.67;;;21.30;70.60;;;;;;4940070;29;20164;-24
2022/01/02 09:57:48;;;;;;;3.60;1.97;;;21.10;71.60;;;;;;4939973;29;20179;-24
2022/01/02 10:00:15;;;;;;;4.93;1.70;;;21.00;72.90;;;;;;4939363;29;20310;-22
2022/01/02 10:02:54;;;;;;;3.33;1.63;;;20.80;74.20;;;;;;4940411;29;20583;-23
2022/01/02 10:05:21;;;;;;;3.00;1.90;;;20.70;75.20;;;;;;4939926;29;20188;-25
2022/01/02 10:07:47;;;;;;;3.57;1.83;;;20.70;75.90;;;;;;4939483;29;20186;-22
2022/01/02 10:10:13;;;;;;;1.97;1.70;;;20.50;76.80;;;;;;4939486;29;20180;-22
2022/01/02 10:12:42;;;;;;;2.50;1.60;;;20.50;77.30;;;;;;4939306;29;20588;-23
2022/01/02 10:15:22;;;;;;;2.37;1.80;;;20.60;76.40;;;;;;4940206;29;20168;-23
2022/01/02 10:18:07;;;;;;;2.90;1.77;;;20.90;74.10;;;;;;4939946;29;20198;-22
2022/01/02 10:20:39;;;;;;;3.73;1.73;;;21.30;70.90;;;;;;4939853;29;20205;-21
2022/01/02 10:23:23;;;;;;;3.27;1.73;;;21.70;67.90;;;;;;4939285;29;20177;-23
2022/01/02 10:25:59;;;;;;;2.67;1.67;;;22.20;64.40;;;;;;4939076;29;20191;-23
2022/01/02 10:28:41;;;;;;;1.77;1.50;;;22.70;60.90;;;;;;4939662;29;20246;-21
2022/01/02 10:31:15;;;;;;;2.73;1.50;;;23.20;58.70;;;;;;4939446;29;20203;-22
2022/01/02 10:34:00;;;;;;;1.67;1.50;;;23.50;57.40;;;;;;4939452;29;20234;-23
2022/01/02 10:36:34;;;;;;;1.67;1.40;;;23.70;56.40;;;;;;4940227;29;20182;-22
2022/01/02 10:39:05;;;;;;;2.13;1.60;;;23.80;56.00;;;;;;4940000;29;20211;-22
2022/01/02 10:41:39;;;;;;;2.40;1.50;;;24.00;55.50;;;;;;4939116;29;20243;-23
2022/01/02 10:44:30;;;;;;;2.70;1.50;;;24.10;55.10;;;;;;4939095;29;20176;-21
2022/01/02 10:47:21;;;;;;;2.43;1.40;;;24.00;55.10;;;;;;4939495;29;20187;-23
2022/01/02 10:49:52;;;;;;;1.43;1.33;;;24.00;54.80;;;;;;4938667;29;20184;-22
2022/01/02 10:52:29;;;;;;;2.33;1.60;;;23.70;55.10;;;;;;4939669;29;20180;-24
2022/01/02 10:54:57;;;;;;;2.30;1.53;;;23.60;55.40;;;;;;4938989;29;20256;-25
2022/01/02 10:57:23;;;;;;;1.80;1.50;;;23.40;55.90;;;;;;4939509;29;20279;-24
2022/01/02 10:59:54;;;;;;;2.50;1.50;;;23.20;56.30;;;;;;4938976;29;20802;-23
2022/01/02 11:02:20;;;;;;;2.20;1.50;;;23.10;56.80;;;;;;4939383;29;20471;-23
2022/01/02 11:04:52;;;;;;;2.30;1.60;;;22.80;57.40;;;;;;4938177;29;20642;-23
2022/01/02 11:07:24;;;;;;;1.47;1.20;;;22.70;57.90;;;;;;4939066;29;20726;-22
2022/01/02 11:09:54;;;;;;;3.30;1.53;;;22.50;58.60;;;;;;4938991;29;20195;-23
2022/01/02 11:12:21;;;;;;;1.50;1.40;;;22.30;59.30;;;;;;4938461;29;20539;-22
2022/01/02 11:14:50;;;;;;;1.60;1.50;;;22.10;60.20;;;;;;4938325;29;20196;-23
2022/01/02 11:17:17;;;;;;;1.60;1.50;;;21.90;61.50;;;;;;4939652;29;20180;-25
2022/01/02 11:19:43;;;;;;;2.50;1.60;;;21.80;62.80;;;;;;4939191;29;20260;-21
2022/01/02 11:22:23;;;;;;;1.73;1.43;;;21.60;64.00;;;;;;4942523;29;20176;-21
2022/01/02 11:25:12;;;;;;;2.70;1.57;;;21.50;65.10;;;;;;4958174;28;20180;-21
2022/01/02 11:27:44;;;;;;;2.00;1.30;;;21.30;66.20;;;;;;4930039;29;20203;-23
2022/01/02 11:30:28;;;;;;;1.73;1.60;;;21.20;67.10;;;;;;4942445;29;20265;-24
2022/01/02 11:33:06;;;;;;;2.53;1.57;;;21.10;68.10;;;;;;4941225;29;20186;-20
2022/01/02 11:35:33;;;;;;;1.63;1.53;;;21.20;68.10;;;;;;4942790;29;20547;-24
2022/01/02 11:38:03;;;;;;;2.13;1.77;;;21.30;67.70;;;;;;4942166;29;20184;-22
2022/01/02 11:40:51;;;;;;;3.30;1.70;;;21.40;66.80;;;;;;4941795;29;20367;-23
2022/01/02 11:43:35;;;;;;;1.90;1.60;;;21.70;65.20;;;;;;4942227;29;20177;-22
2022/01/02 11:46:38;;;;;;;3.37;1.30;;;21.80;63.90;;;;;;4941472;29;20238;-22
2022/01/02 11:49:15;;;;;;;1.70;1.43;;;22.00;62.50;;;;;;4942456;29;20196;-23
2022/01/02 11:51:47;;;;;;;1.70;1.47;;;22.30;60.70;;;;;;4941970;29;20160;-24
2022/01/02 11:54:28;;;;;;;2.20;1.70;;;22.50;59.30;;;;;;4941353;29;20633;-22
2022/01/02 11:56:55;;;;;;;1.70;1.50;;;22.90;58.20;;;;;;4941432;29;20384;-24
2022/01/02 11:59:39;;;;;;;2.00;1.67;;;23.20;57.40;;;;;;4940734;29;20276;-26
2022/01/02 12:02:28;;;;;;;2.30;1.60;;;23.30;56.70;;;;;;4941373;29;20180;-21
2022/01/02 12:05:09;;;;;;;2.10;1.60;;;23.50;55.90;;;;;;4931031;29;20547;-21
2022/01/02 12:07:37;;;;;;;1.97;1.77;;;23.60;55.60;;;;;;4941051;29;20219;-25
2022/01/02 12:10:16;;;;;;;2.47;1.53;;;23.60;55.50;;;;;;4940614;29;20176;-23
2022/01/02 12:13:26;;;;;;;2.20;1.63;;;23.50;55.50;;;;;;4941394;29;20184;-23
2022/01/02 12:15:55;;;;;;;2.67;1.70;;;23.40;55.80;;;;;;4939976;29;20195;-23
2022/01/02 12:18:30;;;;;;;2.37;1.67;;;23.30;55.90;;;;;;4940991;29;20695;-23
2022/01/02 12:21:04;;;;;;;3.90;1.80;;;23.20;56.10;;;;;;4941600;29;20276;-22
2022/01/02 12:23:30;;;;;;;1.50;1.40;;;23.10;56.40;;;;;;4941920;29;20164;-22
2022/01/02 12:26:12;;;;;;;1.73;1.50;;;23.00;56.50;;;;;;4941480;29;20177;-24
2022/01/02 12:28:41;;;;;;;1.70;1.60;;;22.90;56.90;;;;;;4940578;29;20204;-24
2022/01/02 12:31:09;;;;;;;1.53;1.33;;;22.80;57.20;;;;;;4941322;29;20584;-23
2022/01/02 12:33:36;;;;;;;2.43;1.73;;;22.70;57.50;;;;;;4941161;29;20505;-20
2022/01/02 12:36:16;;;;;;;2.07;1.60;;;22.50;58.00;;;;;;4941105;29;20266;-24
2022/01/02 12:38:46;;;;;;;1.90;1.50;;;22.40;58.50;;;;;;4924561;29;20180;-22
2022/01/02 12:41:14;;;;;;;2.30;1.80;;;22.20;59.20;;;;;;4941048;29;20548;-21
2022/01/02 12:43:50;;;;;;;2.10;1.77;;;22.00;59.80;;;;;;4939960;29;20826;-23
2022/01/02 12:46:41;;;;;;;2.50;1.60;;;21.80;60.80;;;;;;4940896;29;20258;-21
2022/01/02 12:49:11;;;;;;;3.13;1.90;;;21.60;62.60;;;;;;4939586;29;20222;-22
2022/01/02 12:51:41;;;;;;;2.03;1.50;;;21.40;63.90;;;;;;4937308;29;20265;-25
2022/01/02 12:54:12;;;;;;;3.60;2.10;;;21.20;66.20;;;;;;4940086;29;20172;-24
2022/01/02 12:56:47;;;;;;;2.23;1.70;;;20.90;68.20;;;;;;4940743;29;20186;-23
2022/01/02 12:59:13;;;;;;;4.10;1.90;;;20.70;70.50;;;;;;4941032;29;20206;-25
2022/01/02 13:01:52;;;;;;;1.97;1.50;;;20.70;71.20;;;;;;4940083;29;20291;-24